sensor_id;sensor_type;location;lat;lon;timestamp;pressure;altitude;pressure_sealevel;temperature
20848;BMP180;10584;50.854;12.902;2023-04-03T00:04:21;99021.00;;;1.60
20848;BMP180;10584;50.854;12.902;2023-04-03T00:09:43;99017.00;;;1.40
20848;BMP180;10584;50.854;12.902;2023-04-03T00:15:05;99027.00;;;1.40
20848;BMP180;10584;50.854;12.902;2023-04-03T00:20:26;99026.00;;;1.40
20848;BMP180;10584;50.854;12.902;2023-04-03T00:25:48;99028.00;;;1.20
20848;BMP180;10584;50.854;12.902;2023-04-03T00:31:10;99030.00;;;1.10
20848;BMP180;10584;50.854;12.902;2023-04-03T00:36:31;99034.00;;;1.10
20848;BMP180;10584;50.854;12.902;2023-04-03T00:41:53;99055.00;;;0.80
20848;BMP180;10584;50.854;12.902;2023-04-03T00:47:16;99040.00;;;0.90
20848;BMP180;10584;50.854;12.902;2023-04-03T00:52:39;99032.00;;;0.90
20848;BMP180;10584;50.854;12.902;2023-04-03T00:58:01;99053.00;;;0.70
20848;BMP180;10584;50.854;12.902;2023-04-03T01:03:23;99051.00;;;0.70
20848;BMP180;10584;50.854;12.902;2023-04-03T01:08:50;99042.00;;;0.50
20848;BMP180;10584;50.854;12.902;2023-04-03T01:14:11;99042.00;;;0.50
20848;BMP180;10584;50.854;12.902;2023-04-03T01:19:34;99055.00;;;0.50
20848;BMP180;10584;50.854;12.902;2023-04-03T01:24:58;99052.00;;;0.60
20848;BMP180;10584;50.854;12.902;2023-04-03T01:30:26;99059.00;;;0.40
20848;BMP180;10584;50.854;12.902;2023-04-03T01:35:49;99057.00;;;0.50
20848;BMP180;10584;50.854;12.902;2023-04-03T01:41:12;99063.00;;;0.50
20848;BMP180;10584;50.854;12.902;2023-04-03T01:46:34;99071.00;;;0.50
20848;BMP180;10584;50.854;12.902;2023-04-03T01:51:56;99059.00;;;0.40
20848;BMP180;10584;50.854;12.902;2023-04-03T01:57:17;99068.00;;;0.30
20848;BMP180;10584;50.854;12.902;2023-04-03T02:02:39;99067.00;;;0.40
20848;BMP180;10584;50.854;12.902;2023-04-03T02:08:01;99061.00;;;0.20
20848;BMP180;10584;50.854;12.902;2023-04-03T02:13:22;99066.00;;;0.00
20848;BMP180;10584;50.854;12.902;2023-04-03T02:18:43;99075.00;;;0.10
20848;BMP180;10584;50.854;12.902;2023-04-03T02:24:05;99073.00;;;0.00
20848;BMP180;10584;50.854;12.902;2023-04-03T02:29:28;99069.00;;;-0.10
20848;BMP180;10584;50.854;12.902;2023-04-03T02:34:49;99077.00;;;-0.10
20848;BMP180;10584;50.854;12.902;2023-04-03T02:40:11;99076.00;;;-0.10
20848;BMP180;10584;50.854;12.902;2023-04-03T02:45:32;99091.00;;;-0.30
20848;BMP180;10584;50.854;12.902;2023-04-03T02:50:54;99089.00;;;-0.20
20848;BMP180;10584;50.854;12.902;2023-04-03T02:56:15;99088.00;;;-0.40
20848;BMP180;10584;50.854;12.902;2023-04-03T03:01:37;99086.00;;;-0.40
20848;BMP180;10584;50.854;12.902;2023-04-03T03:06:58;99093.00;;;-0.50
20848;BMP180;10584;50.854;12.902;2023-04-03T03:12:19;99094.00;;;-0.40
20848;BMP180;10584;50.854;12.902;2023-04-03T03:17:43;99093.00;;;-0.50
20848;BMP180;10584;50.854;12.902;2023-04-03T03:23:05;99103.00;;;-0.60
20848;BMP180;10584;50.854;12.902;2023-04-03T03:28:27;99109.00;;;-0.80
20848;BMP180;10584;50.854;12.902;2023-04-03T03:33:49;99116.00;;;-0.60
20848;BMP180;10584;50.854;12.902;2023-04-03T03:39:11;99121.00;;;-0.70
20848;BMP180;10584;50.854;12.902;2023-04-03T03:44:32;99120.00;;;-0.80
20848;BMP180;10584;50.854;12.902;2023-04-03T03:49:54;99123.00;;;-0.80
20848;BMP180;10584;50.854;12.902;2023-04-03T03:55:16;99125.00;;;-1.00
20848;BMP180;10584;50.854;12.902;2023-04-03T04:00:41;99117.00;;;-1.00
20848;BMP180;10584;50.854;12.902;2023-04-03T04:06:03;99128.00;;;-1.20
20848;BMP180;10584;50.854;12.902;2023-04-03T04:11:24;99138.00;;;-1.20
20848;BMP180;10584;50.854;12.902;2023-04-03T04:16:48;99131.00;;;-1.40
20848;BMP180;10584;50.854;12.902;2023-04-03T04:22:18;99127.00;;;-1.40
20848;BMP180;10584;50.854;12.902;2023-04-03T04:27:39;99140.00;;;-1.50
20848;BMP180;10584;50.854;12.902;2023-04-03T04:33:02;99145.00;;;-1.50
20848;BMP180;10584;50.854;12.902;2023-04-03T04:38:26;99135.00;;;-1.70
20848;BMP180;10584;50.854;12.902;2023-04-03T04:43:52;99155.00;;;-1.70
20848;BMP180;10584;50.854;12.902;2023-04-03T04:49:14;99150.00;;;-1.80
20848;BMP180;10584;50.854;12.902;2023-04-03T04:54:36;99158.00;;;-1.90
20848;BMP180;10584;50.854;12.902;2023-04-03T04:59:58;99161.00;;;-1.80
20848;BMP180;10584;50.854;12.902;2023-04-03T05:05:19;99175.00;;;-2.00
20848;BMP180;10584;50.854;12.902;2023-04-03T05:10:41;99168.00;;;-1.90
20848;BMP180;10584;50.854;12.902;2023-04-03T05:16:05;99176.00;;;-2.00
20848;BMP180;10584;50.854;12.902;2023-04-03T05:21:28;99181.00;;;-2.00
20848;BMP180;10584;50.854;12.902;2023-04-03T05:26:57;99184.00;;;-1.90
20848;BMP180;10584;50.854;12.902;2023-04-03T05:32:20;99181.00;;;-1.90
20848;BMP180;10584;50.854;12.902;2023-04-03T05:37:47;99194.00;;;-1.90
20848;BMP180;10584;50.854;12.902;2023-04-03T05:43:10;99188.00;;;-1.90
20848;BMP180;10584;50.854;12.902;2023-04-03T05:48:34;99185.00;;;-1.70
20848;BMP180;10584;50.854;12.902;2023-04-03T05:59:42;99203.00;;;-1.30
20848;BMP180;10584;50.854;12.902;2023-04-03T06:05:05;99208.00;;;-1.20
20848;BMP180;10584;50.854;12.902;2023-04-03T06:10:29;99217.00;;;-1.20
20848;BMP180;10584;50.854;12.902;2023-04-03T06:15:51;99218.00;;;-1.20
20848;BMP180;10584;50.854;12.902;2023-04-03T06:21:12;99225.00;;;-1.00
20848;BMP180;10584;50.854;12.902;2023-04-03T06:26:35;99221.00;;;-0.90
20848;BMP180;10584;50.854;12.902;2023-04-03T06:31:56;99225.00;;;-1.00
20848;BMP180;10584;50.854;12.902;2023-04-03T06:37:20;99226.00;;;-0.80
20848;BMP180;10584;50.854;12.902;2023-04-03T06:42:42;99235.00;;;-0.90
20848;BMP180;10584;50.854;12.902;2023-04-03T06:48:06;99241.00;;;-0.80
20848;BMP180;10584;50.854;12.902;2023-04-03T06:53:27;99250.00;;;-0.80
20848;BMP180;10584;50.854;12.902;2023-04-03T06:58:49;99248.00;;;-0.80
20848;BMP180;10584;50.854;12.902;2023-04-03T07:04:11;99264.00;;;-0.70
20848;BMP180;10584;50.854;12.902;2023-04-03T07:09:33;99255.00;;;-0.60
20848;BMP180;10584;50.854;12.902;2023-04-03T07:14:55;99265.00;;;-0.70
20848;BMP180;10584;50.854;12.902;2023-04-03T07:20:16;99269.00;;;-0.60
20848;BMP180;10584;50.854;12.902;2023-04-03T07:25:46;99277.00;;;-0.50
20848;BMP180;10584;50.854;12.902;2023-04-03T07:31:11;99283.00;;;-0.40
20848;BMP180;10584;50.854;12.902;2023-04-03T07:36:34;99270.00;;;-0.40
20848;BMP180;10584;50.854;12.902;2023-04-03T07:41:57;99292.00;;;-0.40
20848;BMP180;10584;50.854;12.902;2023-04-03T07:47:19;99286.00;;;-0.30
20848;BMP180;10584;50.854;12.902;2023-04-03T07:52:41;99296.00;;;-0.30
20848;BMP180;10584;50.854;12.902;2023-04-03T07:58:02;99304.00;;;-0.20
20848;BMP180;10584;50.854;12.902;2023-04-03T08:03:24;99312.00;;;-0.20
20848;BMP180;10584;50.854;12.902;2023-04-03T08:08:46;99305.00;;;-0.20
20848;BMP180;10584;50.854;12.902;2023-04-03T08:14:08;99315.00;;;0.00
20848;BMP180;10584;50.854;12.902;2023-04-03T08:19:32;99313.00;;;0.00
20848;BMP180;10584;50.854;12.902;2023-04-03T08:24:53;99319.00;;;-0.10
20848;BMP180;10584;50.854;12.902;2023-04-03T08:30:19;99318.00;;;0.10
20848;BMP180;10584;50.854;12.902;2023-04-03T08:35:41;99322.00;;;0.20
20848;BMP180;10584;50.854;12.902;2023-04-03T08:41:27;99326.00;;;0.20
20848;BMP180;10584;50.854;12.902;2023-04-03T08:52:46;99327.00;;;0.70
20848;BMP180;10584;50.854;12.902;2023-04-03T08:58:28;99334.00;;;0.80
20848;BMP180;10584;50.854;12.902;2023-04-03T09:03:50;99337.00;;;0.90
20848;BMP180;10584;50.854;12.902;2023-04-03T09:09:24;99339.00;;;1.00
20848;BMP180;10584;50.854;12.902;2023-04-03T09:15:21;99346.00;;;1.20
20848;BMP180;10584;50.854;12.902;2023-04-03T09:21:13;99352.00;;;1.40
20848;BMP180;10584;50.854;12.902;2023-04-03T09:26:51;99350.00;;;1.60
20848;BMP180;10584;50.854;12.902;2023-04-03T09:32:34;99340.00;;;1.70
20848;BMP180;10584;50.854;12.902;2023-04-03T09:43:32;99345.00;;;1.80
20848;BMP180;10584;50.854;12.902;2023-04-03T09:49:03;99351.00;;;2.00
20848;BMP180;10584;50.854;12.902;2023-04-03T09:54:37;99339.00;;;2.30
20848;BMP180;10584;50.854;12.902;2023-04-03T10:00:01;99333.00;;;2.20
20848;BMP180;10584;50.854;12.902;2023-04-03T10:11:15;99327.00;;;2.30
20848;BMP180;10584;50.854;12.902;2023-04-03T10:17:56;99321.00;;;2.50
20848;BMP180;10584;50.854;12.902;2023-04-03T10:51:16;99311.00;;;3.80
20848;BMP180;10584;50.854;12.902;2023-04-03T11:08:48;99307.00;;;3.20
20848;BMP180;10584;50.854;12.902;2023-04-03T11:14:32;99295.00;;;3.20
20848;BMP180;10584;50.854;12.902;2023-04-03T11:20:14;99286.00;;;3.20
20848;BMP180;10584;50.854;12.902;2023-04-03T11:25:39;99285.00;;;3.00
20848;BMP180;10584;50.854;12.902;2023-04-03T11:37:03;99278.00;;;3.00
20848;BMP180;10584;50.854;12.902;2023-04-03T11:42:48;99273.00;;;2.90
20848;BMP180;10584;50.854;12.902;2023-04-03T11:53:52;99261.00;;;3.40
20848;BMP180;10584;50.854;12.902;2023-04-03T11:59:15;99263.00;;;3.50
20848;BMP180;10584;50.854;12.902;2023-04-03T12:04:39;99248.00;;;3.60
20848;BMP180;10584;50.854;12.902;2023-04-03T12:10:23;99249.00;;;3.70
20848;BMP180;10584;50.854;12.902;2023-04-03T12:15:53;99258.00;;;3.80
20848;BMP180;10584;50.854;12.902;2023-04-03T12:21:16;99252.00;;;4.00
20848;BMP180;10584;50.854;12.902;2023-04-03T12:44:40;99240.00;;;4.00
20848;BMP180;10584;50.854;12.902;2023-04-03T12:55:45;99230.00;;;4.30
20848;BMP180;10584;50.854;12.902;2023-04-03T13:01:21;99229.00;;;4.70
20848;BMP180;10584;50.854;12.902;2023-04-03T13:06:44;99233.00;;;4.70
20848;BMP180;10584;50.854;12.902;2023-04-03T13:12:13;99236.00;;;4.20
20848;BMP180;10584;50.854;12.902;2023-04-03T13:17:39;99235.00;;;4.30
20848;BMP180;10584;50.854;12.902;2023-04-03T13:23:08;99230.00;;;4.30
20848;BMP180;10584;50.854;12.902;2023-04-03T13:28:31;99240.00;;;4.90
20848;BMP180;10584;50.854;12.902;2023-04-03T13:34:10;99227.00;;;4.60
20848;BMP180;10584;50.854;12.902;2023-04-03T13:39:34;99229.00;;;4.50
20848;BMP180;10584;50.854;12.902;2023-04-03T13:45:25;99230.00;;;4.30
20848;BMP180;10584;50.854;12.902;2023-04-03T13:56:26;99225.00;;;4.00
20848;BMP180;10584;50.854;12.902;2023-04-03T14:07:24;99226.00;;;3.90
20848;BMP180;10584;50.854;12.902;2023-04-03T14:12:45;99214.00;;;3.70
20848;BMP180;10584;50.854;12.902;2023-04-03T14:18:10;99221.00;;;3.70
20848;BMP180;10584;50.854;12.902;2023-04-03T14:23:31;99216.00;;;3.60
20848;BMP180;10584;50.854;12.902;2023-04-03T14:28:55;99220.00;;;3.60
20848;BMP180;10584;50.854;12.902;2023-04-03T14:34:17;99213.00;;;3.50
20848;BMP180;10584;50.854;12.902;2023-04-03T14:39:38;99215.00;;;3.70
20848;BMP180;10584;50.854;12.902;2023-04-03T14:45:02;99217.00;;;3.70
20848;BMP180;10584;50.854;12.902;2023-04-03T14:50:27;99206.00;;;3.60
20848;BMP180;10584;50.854;12.902;2023-04-03T14:55:49;99206.00;;;3.50
20848;BMP180;10584;50.854;12.902;2023-04-03T15:01:11;99205.00;;;3.20
20848;BMP180;10584;50.854;12.902;2023-04-03T15:06:35;99204.00;;;3.40
20848;BMP180;10584;50.854;12.902;2023-04-03T15:11:56;99204.00;;;3.30
20848;BMP180;10584;50.854;12.902;2023-04-03T15:17:21;99206.00;;;3.20
20848;BMP180;10584;50.854;12.902;2023-04-03T15:22:43;99205.00;;;3.00
20848;BMP180;10584;50.854;12.902;2023-04-03T15:28:05;99209.00;;;3.00
20848;BMP180;10584;50.854;12.902;2023-04-03T15:33:27;99208.00;;;3.00
20848;BMP180;10584;50.854;12.902;2023-04-03T15:38:48;99199.00;;;2.90
20848;BMP180;10584;50.854;12.902;2023-04-03T15:44:10;99201.00;;;2.80
20848;BMP180;10584;50.854;12.902;2023-04-03T15:49:33;99217.00;;;2.70
20848;BMP180;10584;50.854;12.902;2023-04-03T15:54:55;99205.00;;;2.80
20848;BMP180;10584;50.854;12.902;2023-04-03T16:00:17;99210.00;;;2.80
20848;BMP180;10584;50.854;12.902;2023-04-03T16:05:39;99209.00;;;2.80
20848;BMP180;10584;50.854;12.902;2023-04-03T16:11:00;99213.00;;;2.80
20848;BMP180;10584;50.854;12.902;2023-04-03T16:16:23;99206.00;;;2.80
20848;BMP180;10584;50.854;12.902;2023-04-03T16:21:45;99212.00;;;2.60
20848;BMP180;10584;50.854;12.902;2023-04-03T16:27:07;99216.00;;;2.60
20848;BMP180;10584;50.854;12.902;2023-04-03T16:32:31;99204.00;;;2.60
20848;BMP180;10584;50.854;12.902;2023-04-03T16:37:52;99214.00;;;2.40
20848;BMP180;10584;50.854;12.902;2023-04-03T16:43:14;99208.00;;;2.30
20848;BMP180;10584;50.854;12.902;2023-04-03T16:48:35;99213.00;;;2.20
20848;BMP180;10584;50.854;12.902;2023-04-03T16:53:57;99216.00;;;2.10
20848;BMP180;10584;50.854;12.902;2023-04-03T16:59:19;99210.00;;;2.00
20848;BMP180;10584;50.854;12.902;2023-04-03T17:04:40;99213.00;;;2.00
20848;BMP180;10584;50.854;12.902;2023-04-03T17:10:02;99211.00;;;1.90
20848;BMP180;10584;50.854;12.902;2023-04-03T17:15:24;99209.00;;;1.90
20848;BMP180;10584;50.854;12.902;2023-04-03T17:20:46;99212.00;;;1.90
20848;BMP180;10584;50.854;12.902;2023-04-03T17:26:07;99220.00;;;1.70
20848;BMP180;10584;50.854;12.902;2023-04-03T17:31:29;99219.00;;;1.60
20848;BMP180;10584;50.854;12.902;2023-04-03T17:36:50;99215.00;;;1.70
20848;BMP180;10584;50.854;12.902;2023-04-03T17:42:12;99237.00;;;1.70
20848;BMP180;10584;50.854;12.902;2023-04-03T17:47:34;99227.00;;;1.70
20848;BMP180;10584;50.854;12.902;2023-04-03T17:52:55;99240.00;;;1.70
20848;BMP180;10584;50.854;12.902;2023-04-03T17:58:17;99237.00;;;1.60
20848;BMP180;10584;50.854;12.902;2023-04-03T18:03:38;99242.00;;;1.50
20848;BMP180;10584;50.854;12.902;2023-04-03T18:09:12;99244.00;;;1.50
20848;BMP180;10584;50.854;12.902;2023-04-03T18:14:37;99256.00;;;1.40
20848;BMP180;10584;50.854;12.902;2023-04-03T18:19:59;99243.00;;;1.40
20848;BMP180;10584;50.854;12.902;2023-04-03T18:25:20;99253.00;;;1.30
20848;BMP180;10584;50.854;12.902;2023-04-03T18:30:42;99247.00;;;1.30
20848;BMP180;10584;50.854;12.902;2023-04-03T18:36:04;99249.00;;;1.20
20848;BMP180;10584;50.854;12.902;2023-04-03T18:41:29;99253.00;;;1.20
20848;BMP180;10584;50.854;12.902;2023-04-03T18:46:52;99250.00;;;1.20
20848;BMP180;10584;50.854;12.902;2023-04-03T18:52:14;99255.00;;;1.20
20848;BMP180;10584;50.854;12.902;2023-04-03T18:57:36;99247.00;;;1.20
20848;BMP180;10584;50.854;12.902;2023-04-03T19:02:57;99247.00;;;1.30
20848;BMP180;10584;50.854;12.902;2023-04-03T19:08:19;99246.00;;;1.40
20848;BMP180;10584;50.854;12.902;2023-04-03T19:13:41;99237.00;;;1.30
20848;BMP180;10584;50.854;12.902;2023-04-03T19:19:22;99243.00;;;1.30
20848;BMP180;10584;50.854;12.902;2023-04-03T19:24:44;99247.00;;;1.20
20848;BMP180;10584;50.854;12.902;2023-04-03T19:30:08;99243.00;;;1.10
20848;BMP180;10584;50.854;12.902;2023-04-03T19:35:29;99249.00;;;1.00
20848;BMP180;10584;50.854;12.902;2023-04-03T19:40:51;99251.00;;;0.90
20848;BMP180;10584;50.854;12.902;2023-04-03T19:46:13;99251.00;;;0.90
20848;BMP180;10584;50.854;12.902;2023-04-03T19:51:34;99242.00;;;0.80
20848;BMP180;10584;50.854;12.902;2023-04-03T19:56:56;99254.00;;;0.80
20848;BMP180;10584;50.854;12.902;2023-04-03T20:02:18;99244.00;;;0.70
20848;BMP180;10584;50.854;12.902;2023-04-03T20:07:41;99248.00;;;0.70
20848;BMP180;10584;50.854;12.902;2023-04-03T20:13:03;99246.00;;;0.60
20848;BMP180;10584;50.854;12.902;2023-04-03T20:18:28;99250.00;;;0.60
20848;BMP180;10584;50.854;12.902;2023-04-03T20:23:50;99243.00;;;0.60
20848;BMP180;10584;50.854;12.902;2023-04-03T20:29:13;99243.00;;;0.60
20848;BMP180;10584;50.854;12.902;2023-04-03T20:34:36;99243.00;;;0.60
20848;BMP180;10584;50.854;12.902;2023-04-03T20:39:58;99245.00;;;0.60
20848;BMP180;10584;50.854;12.902;2023-04-03T20:45:19;99234.00;;;0.60
20848;BMP180;10584;50.854;12.902;2023-04-03T20:50:41;99237.00;;;0.60
20848;BMP180;10584;50.854;12.902;2023-04-03T20:56:03;99233.00;;;0.60
20848;BMP180;10584;50.854;12.902;2023-04-03T21:01:25;99233.00;;;0.60
20848;BMP180;10584;50.854;12.902;2023-04-03T21:19:13;99219.00;;;0.50
20848;BMP180;10584;50.854;12.902;2023-04-03T21:24:36;99226.00;;;0.60
20848;BMP180;10584;50.854;12.902;2023-04-03T21:29:58;99230.00;;;0.50
20848;BMP180;10584;50.854;12.902;2023-04-03T21:35:20;99210.00;;;0.50
20848;BMP180;10584;50.854;12.902;2023-04-03T21:40:41;99220.00;;;0.60
20848;BMP180;10584;50.854;12.902;2023-04-03T21:46:06;99212.00;;;0.50
20848;BMP180;10584;50.854;12.902;2023-04-03T21:51:28;99210.00;;;0.50
20848;BMP180;10584;50.854;12.902;2023-04-03T21:56:50;99214.00;;;0.60
20848;BMP180;10584;50.854;12.902;2023-04-03T22:02:14;99207.00;;;0.60
20848;BMP180;10584;50.854;12.902;2023-04-03T22:07:35;99201.00;;;0.60
20848;BMP180;10584;50.854;12.902;2023-04-03T22:12:57;99206.00;;;0.60
20848;BMP180;10584;50.854;12.902;2023-04-03T22:18:19;99200.00;;;0.50
20848;BMP180;10584;50.854;12.902;2023-04-03T22:23:40;99202.00;;;0.50
20848;BMP180;10584;50.854;12.902;2023-04-03T22:29:02;99201.00;;;0.40
20848;BMP180;10584;50.854;12.902;2023-04-03T22:34:24;99198.00;;;0.30
20848;BMP180;10584;50.854;12.902;2023-04-03T22:39:46;99193.00;;;0.30
20848;BMP180;10584;50.854;12.902;2023-04-03T22:45:08;99184.00;;;0.20
20848;BMP180;10584;50.854;12.902;2023-04-03T22:50:29;99176.00;;;0.20
20848;BMP180;10584;50.854;12.902;2023-04-03T22:55:56;99186.00;;;0.20
20848;BMP180;10584;50.854;12.902;2023-04-03T23:01:17;99164.00;;;0.10
20848;BMP180;10584;50.854;12.902;2023-04-03T23:06:40;99172.00;;;0.20
20848;BMP180;10584;50.854;12.902;2023-04-03T23:12:01;99172.00;;;0.10
20848;BMP180;10584;50.854;12.902;2023-04-03T23:17:23;99164.00;;;0.10
20848;BMP180;10584;50.854;12.902;2023-04-03T23:22:44;99173.00;;;0.20
20848;BMP180;10584;50.854;12.902;2023-04-03T23:28:06;99163.00;;;0.20
20848;BMP180;10584;50.854;12.902;2023-04-03T23:33:29;99164.00;;;0.20
20848;BMP180;10584;50.854;12.902;2023-04-03T23:38:54;99171.00;;;0.20
20848;BMP180;10584;50.854;12.902;2023-04-03T23:44:15;99173.00;;;0.20
20848;BMP180;10584;50.854;12.902;2023-04-03T23:49:37;99172.00;;;0.20
20848;BMP180;10584;50.854;12.902;2023-04-03T23:54:59;99166.00;;;0.20
